Time;durP1;ratioP1;P1;durP2;ratioP2;P2;SDS_P1;SDS_P2;PMS_P1;PMS_P2;Temp;Humidity;BMP_temperature;BMP_pressure;BME280_temperature;BME280_humidity;BME280_pressure;Samples;Min_cycle;Max_cycle;Signal;HPM_P1;HPM_P2
2023/09/27 00:02:43;;;;;;;3.33;3.03;;;;;;;15.33;63.00;100903.81;21068928;28;20672;-84
2023/09/27 00:12:46;;;;;;;4.15;3.08;;;;;;;15.94;61.50;100898.38;21062277;28;20285;-84
2023/09/27 00:22:48;;;;;;;3.97;2.50;;;;;;;15.49;63.17;100907.66;21065007;28;20218;-82
2023/09/27 00:32:53;;;;;;;4.05;2.88;;;;;;;14.94;64.95;100899.44;21066952;28;20201;-80
2023/09/27 00:42:54;;;;;;;3.58;3.08;;;;;;;14.70;64.92;100900.09;21074823;28;20236;-81
2023/09/27 00:52:58;;;;;;;3.13;2.92;;;;;;;14.68;65.25;100905.28;21053783;28;20279;-85
2023/09/27 01:03:00;;;;;;;3.92;3.50;;;;;;;14.75;64.70;100916.91;21072611;28;20306;-82
2023/09/27 01:13:03;;;;;;;3.92;3.40;;;;;;;14.47;66.37;100941.22;21074346;28;20580;-85
2023/09/27 01:23:07;;;;;;;3.97;3.58;;;;;;;14.12;67.35;100944.16;21078769;28;20286;-79
2023/09/27 01:33:10;;;;;;;2.97;2.67;;;;;;;14.25;67.26;100956.47;21071759;28;20400;-83
2023/09/27 01:43:13;;;;;;;3.45;3.15;;;;;;;13.71;68.66;100975.88;21076219;28;20218;-87
2023/09/27 01:53:14;;;;;;;4.45;3.22;;;;;;;14.09;66.92;100959.00;21098026;28;20321;-86
2023/09/27 02:03:18;;;;;;;4.63;3.28;;;;;;;14.00;67.38;100966.69;21073934;28;20710;-82
2023/09/27 02:13:19;;;;;;;5.10;3.65;;;;;;;13.83;67.08;100980.84;21099578;28;20560;-85
2023/09/27 02:23:22;;;;;;;4.80;3.45;;;;;;;14.23;65.35;100975.78;21097483;28;20218;-78
2023/09/27 02:33:24;;;;;;;6.60;3.05;;;;;;;13.57;67.16;100970.41;21075423;28;20212;-78
2023/09/27 02:43:27;;;;;;;4.30;3.50;;;;;;;13.76;66.77;100977.72;21085965;28;20224;-78
2023/09/27 02:53:29;;;;;;;4.13;3.10;;;;;;;13.88;65.71;100970.22;21077732;28;20326;-78
2023/09/27 03:03:32;;;;;;;4.10;3.15;;;;;;;13.90;66.48;100953.69;21080335;28;20218;-79
2023/09/27 03:13:36;;;;;;;4.10;3.40;;;;;;;14.30;64.88;100925.97;21045193;28;20277;-78
2023/09/27 03:23:39;;;;;;;4.93;3.85;;;;;;;14.57;64.19;100915.31;21061063;28;20309;-78
2023/09/27 03:33:41;;;;;;;7.45;3.30;;;;;;;14.13;65.01;100920.34;21074039;28;20357;-78
2023/09/27 03:43:45;;;;;;;4.40;3.47;;;;;;;14.49;64.30;100930.38;21072020;28;20705;-79
2023/09/27 03:53:46;;;;;;;5.05;3.65;;;;;;;14.25;64.30;100940.31;21069756;28;20222;-79
2023/09/27 04:03:49;;;;;;;3.97;3.42;;;;;;;14.01;65.04;100929.56;21071079;28;20214;-78
2023/09/27 04:13:51;;;;;;;3.40;3.10;;;;;;;14.27;64.06;100915.34;21068164;28;20217;-78
2023/09/27 04:23:59;;;;;;;4.20;3.33;;;;;;;14.22;64.86;100921.19;21067592;28;20209;-78
2023/09/27 04:34:00;;;;;;;5.03;3.55;;;;;;;13.88;66.45;100932.59;21048295;28;20282;-78
2023/09/27 04:44:04;;;;;;;5.43;3.80;;;;;;;14.43;64.02;100932.56;21065301;28;20224;-78
2023/09/27 04:54:07;;;;;;;5.20;3.85;;;;;;;14.04;65.25;100954.31;21055824;28;20234;-78
2023/09/27 05:04:10;;;;;;;5.95;4.07;;;;;;;14.16;64.84;100959.28;21031243;28;20279;-79
2023/09/27 05:14:11;;;;;;;5.10;3.80;;;;;;;13.54;66.23;100964.56;21032837;28;20602;-78
2023/09/27 05:24:15;;;;;;;8.00;4.15;;;;;;;13.56;66.69;100956.59;21026481;28;20250;-78
2023/09/27 05:34:16;;;;;;;5.20;4.70;;;;;;;13.89;65.13;100942.75;21072280;28;20204;-79
2023/09/27 05:44:20;;;;;;;7.40;3.95;;;;;;;14.07;65.36;100955.66;21051643;28;20222;-80
2023/09/27 05:54:21;;;;;;;8.48;5.03;;;;;;;14.10;64.97;100946.50;21085702;28;20568;-81
2023/09/27 06:04:24;;;;;;;4.95;4.45;;;;;;;13.59;66.95;100953.94;21095108;28;20214;-79
2023/09/27 06:14:27;;;;;;;6.45;5.13;;;;;;;13.91;65.87;100968.69;21090248;28;20207;-80
2023/09/27 06:24:30;;;;;;;7.35;6.22;;;;;;;14.32;64.56;100990.75;21102006;28;20595;-81
2023/09/27 06:34:32;;;;;;;7.87;5.57;;;;;;;13.89;67.76;100982.34;21111242;28;20679;-80
2023/09/27 06:44:35;;;;;;;13.80;6.78;;;;;;;14.68;64.50;100998.78;21098621;28;20281;-80
2023/09/27 06:54:37;;;;;;;8.00;4.88;;;;;;;14.49;66.71;100984.19;21072679;28;20732;-80
2023/09/27 07:04:42;;;;;;;7.22;5.22;;;;;;;16.03;60.54;100989.94;21074674;28;20226;-80
2023/09/27 07:14:44;;;;;;;6.70;4.57;;;;;;;16.34;60.44;100998.78;21071167;28;20205;-80
2023/09/27 07:24:48;;;;;;;8.57;4.60;;;;;;;15.77;62.71;100991.03;21099036;28;20234;-80
2023/09/27 07:34:52;;;;;;;8.57;4.40;;;;;;;16.11;62.85;100960.59;21064865;28;20571;-80
2023/09/27 07:44:56;;;;;;;6.88;4.95;;;;;;;16.16;64.10;100966.91;21075943;28;20218;-80
2023/09/27 07:54:59;;;;;;;6.60;4.47;;;;;;;16.02;62.99;100962.72;21066736;28;20226;-80
2023/09/27 08:05:09;;;;;;;8.32;5.25;;;;;;;16.32;61.14;100967.03;21087322;28;20226;-80
2023/09/27 08:15:12;;;;;;;5.15;4.63;;;;;;;17.00;61.23;100978.69;21081941;28;20614;-80
2023/09/27 08:25:16;;;;;;;6.78;4.13;;;;;;;17.70;58.75;100955.63;21066703;28;20547;-80
2023/09/27 08:35:18;;;;;;;6.05;3.60;;;;;;;17.59;58.66;100943.94;21065189;28;20198;-81
2023/09/27 08:45:23;;;;;;;4.55;3.85;;;;;;;18.16;56.43;100939.88;21088780;28;20222;-80
2023/09/27 08:55:25;;;;;;;7.28;3.80;;;;;;;18.17;57.38;100941.56;21083152;28;20226;-82
2023/09/27 09:05:29;;;;;;;6.97;3.80;;;;;;;19.15;55.50;100904.47;21078189;28;20229;-82
2023/09/27 09:15:35;;;;;;;3.78;2.88;;;;;;;18.56;57.63;100914.88;21112135;28;20302;-81
2023/09/27 09:25:46;;;;;;;3.88;3.03;;;;;;;19.13;57.42;100893.41;21069666;28;20222;-79
2023/09/27 09:35:48;;;;;;;4.40;2.63;;;;;;;19.19;50.08;100900.50;21058682;28;20276;-81
2023/09/27 09:45:51;;;;;;;6.55;2.33;;;;;;;19.12;51.40;100888.91;21082394;28;20218;-81
2023/09/27 09:55:53;;;;;;;4.55;2.20;;;;;;;19.17;51.10;100874.34;21078390;28;20230;-86
2023/09/27 10:05:56;;;;;;;2.45;1.85;;;;;;;19.69;49.93;100855.88;21097003;28;20514;-86
2023/09/27 10:15:58;;;;;;;4.03;2.50;;;;;;;19.54;50.04;100865.34;21068154;28;20646;-85
2023/09/27 10:26:17;;;;;;;3.53;2.40;;;;;;;19.30;50.28;100849.38;21082304;28;20258;-80
2023/09/27 10:36:29;;;;;;;4.82;2.53;;;;;;;19.80;48.34;100848.31;21063309;28;20265;-81
2023/09/27 10:46:42;;;;;;;2.88;1.80;;;;;;;20.47;46.42;100845.84;21077295;28;20226;-81
2023/09/27 10:56:44;;;;;;;3.88;1.85;;;;;;;21.09;44.25;100837.75;21073730;28;20288;-84
2023/09/27 11:06:48;;;;;;;3.03;2.10;;;;;;;20.69;43.49;100829.84;21072443;28;20313;-83
2023/09/27 11:16:50;;;;;;;4.03;2.08;;;;;;;20.94;42.91;100821.63;21057739;28;20199;-85
2023/09/27 11:26:53;;;;;;;3.47;1.77;;;;;;;21.58;42.07;100808.09;21060995;28;20503;-83
2023/09/27 11:36:57;;;;;;;4.47;2.28;;;;;;;21.70;40.65;100793.50;21073694;28;20281;-86
2023/09/27 11:47:07;;;;;;;3.10;1.95;;;;;;;21.42;41.77;100786.28;21056102;28;20252;-83
2023/09/27 11:57:09;;;;;;;5.35;1.92;;;;;;;22.07;41.41;100774.25;21033425;28;20234;-81
2023/09/27 12:07:12;;;;;;;2.53;1.88;;;;;;;22.41;41.17;100748.28;21069595;28;20641;-82
2023/09/27 12:17:14;;;;;;;4.90;2.20;;;;;;;22.51;42.72;100736.03;21061099;28;20241;-81
2023/09/27 12:27:19;;;;;;;3.40;1.92;;;;;;;21.97;41.10;100723.38;21059738;28;20306;-88
2023/09/27 12:37:21;;;;;;;5.07;1.98;;;;;;;23.09;40.07;100700.66;21049212;28;20618;-82
2023/09/27 12:47:25;;;;;;;3.72;1.67;;;;;;;23.00;39.17;100685.84;21053061;28;20343;-84
2023/09/27 12:57:27;;;;;;;4.10;1.95;;;;;;;23.07;39.62;100678.09;21051946;28;20364;-84
2023/09/27 13:07:30;;;;;;;1.30;1.20;;;;;;;22.76;39.40;100673.84;21066799;28;20355;-91
2023/09/27 13:17:32;;;;;;;1.58;1.38;;;;;;;22.45;39.79;100657.38;21071481;28;20218;-87
2023/09/27 13:27:35;;;;;;;4.72;1.00;;;;;;;22.65;39.29;100643.50;21055068;28;20534;-92
2023/09/27 13:37:37;;;;;;;2.05;1.20;;;;;;;22.08;38.80;100626.03;21080034;28;20215;-88
2023/09/27 13:47:41;;;;;;;4.45;1.52;;;;;;;22.87;39.18;100616.50;21061607;28;20646;-82
2023/09/27 13:57:43;;;;;;;1.65;1.55;;;;;;;23.15;40.05;100607.13;21070258;28;20518;-87
2023/09/27 14:07:47;;;;;;;1.38;1.10;;;;;;;22.70;40.56;100617.28;21066115;28;20587;-81
2023/09/27 14:17:48;;;;;;;2.80;1.30;;;;;;;22.90;40.06;100600.53;21067150;28;20545;-88
2023/09/27 14:27:51;;;;;;;3.40;1.60;;;;;;;22.64;40.16;100596.78;21059727;28;20194;-80
2023/09/27 14:37:53;;;;;;;3.28;1.48;;;;;;;22.74;40.59;100587.38;21072488;28;20222;-79
2023/09/27 14:47:57;;;;;;;2.25;1.50;;;;;;;23.29;40.23;100587.06;21070984;28;20326;-80
2023/09/27 14:57:59;;;;;;;3.05;1.88;;;;;;;22.80;40.81;100571.41;21049340;28;20527;-80
2023/09/27 15:08:04;;;;;;;2.75;1.88;;;;;;;22.77;42.43;100571.38;21031726;28;21088;-81
2023/09/27 15:18:06;;;;;;;3.38;2.20;;;;;;;22.83;42.02;100558.31;21044153;28;20317;-80
2023/09/27 15:28:09;;;;;;;3.25;1.65;;;;;;;22.35;43.27;100578.63;21025642;28;20246;-79
2023/09/27 15:38:10;;;;;;;3.08;2.05;;;;;;;23.05;42.91;100573.50;21038554;28;20223;-81
2023/09/27 15:48:14;;;;;;;2.45;1.60;;;;;;;22.94;42.88;100575.53;21026427;28;20226;-81
2023/09/27 15:58:16;;;;;;;4.82;1.60;;;;;;;22.08;43.17;100555.16;21036346;28;20234;-80
2023/09/27 16:08:21;;;;;;;4.97;2.92;;;;;;;22.45;41.98;100557.81;21039514;28;20194;-86
2023/09/27 16:18:23;;;;;;;4.13;2.45;;;;;;;22.54;42.29;100540.22;21040395;28;20218;-81
2023/09/27 16:28:27;;;;;;;2.28;1.83;;;;;;;22.25;44.70;100536.41;21044916;28;20218;-80
2023/09/27 16:38:29;;;;;;;4.65;1.75;;;;;;;21.99;46.86;100539.56;21040702;28;20317;-81
2023/09/27 16:48:32;;;;;;;3.15;1.95;;;;;;;21.24;50.03;100541.94;21032253;28;20527;-79
2023/09/27 16:58:34;;;;;;;5.88;2.97;;;;;;;20.96;51.26;100548.22;21030568;28;20518;-79
2023/09/27 17:08:38;;;;;;;4.13;2.60;;;;;;;20.52;53.96;100536.75;21033477;28;20194;-85
2023/09/27 17:18:40;;;;;;;3.60;2.47;;;;;;;20.49;51.62;100540.38;21031043;28;20237;-80
2023/09/27 17:28:43;;;;;;;5.07;3.30;;;;;;;19.57;53.79;100536.31;21032869;28;20202;-81
2023/09/27 17:38:45;;;;;;;4.18;2.95;;;;;;;19.63;55.06;100526.19;21032091;28;20280;-80
2023/09/27 17:48:48;;;;;;;7.25;2.80;;;;;;;19.25;56.01;100510.94;21041226;28;20216;-79
2023/09/27 17:58:50;;;;;;;4.38;2.92;;;;;;;19.33;55.85;100501.31;21045284;28;20324;-81
2023/09/27 18:08:57;;;;;;;8.13;3.53;;;;;;;19.03;56.18;100503.25;21057479;28;21620;-80
2023/09/27 18:19:01;;;;;;;5.20;3.80;;;;;;;18.94;56.61;100485.59;21042918;28;20257;-79
2023/09/27 18:29:09;;;;;;;4.22;3.03;;;;;;;18.76;56.87;100481.59;21050090;28;20402;-79
2023/09/27 18:39:13;;;;;;;6.00;3.92;;;;;;;18.80;56.37;100493.91;21045728;28;20223;-80
2023/09/27 18:49:16;;;;;;;6.53;3.22;;;;;;;18.10;58.70;100497.03;21046192;28;20733;-78
2023/09/27 18:59:18;;;;;;;6.28;3.38;;;;;;;18.33;57.73;100492.19;21032441;28;20297;-78
2023/09/27 19:09:21;;;;;;;5.85;3.75;;;;;;;18.06;59.23;100496.13;21040542;28;20205;-78
2023/09/27 19:19:23;;;;;;;6.72;4.40;;;;;;;17.94;59.13;100502.81;21038167;28;20308;-79
2023/09/27 19:29:26;;;;;;;5.93;3.70;;;;;;;17.54;60.58;100497.44;21030474;28;20494;-79
2023/09/27 19:39:27;;;;;;;5.00;3.90;;;;;;;17.31;61.54;100482.28;21036348;28;20669;-79
2023/09/27 19:49:30;;;;;;;4.65;3.60;;;;;;;17.08;61.94;100471.59;21039661;28;20303;-79
2023/09/27 19:59:32;;;;;;;5.30;3.63;;;;;;;17.43;59.21;100463.06;21039393;28;20309;-78
2023/09/27 20:09:36;;;;;;;2.53;2.30;;;;;;;18.03;56.44;100454.19;21028111;28;20206;-79
2023/09/27 20:19:37;;;;;;;3.88;2.72;;;;;;;17.90;56.20;100445.78;21034019;28;20238;-79
2023/09/27 20:29:41;;;;;;;2.92;2.60;;;;;;;17.61;56.08;100437.84;21038040;28;20187;-78
2023/09/27 20:39:42;;;;;;;5.20;2.60;;;;;;;18.36;53.10;100423.06;21035544;28;20222;-79
2023/09/27 20:49:45;;;;;;;5.10;4.68;;;;;;;17.79;54.56;100421.97;21034550;28;20225;-79
2023/09/27 20:59:47;;;;;;;4.13;2.95;;;;;;;18.63;51.82;100444.75;21028145;28;20215;-78
2023/09/27 21:09:51;;;;;;;5.15;4.40;;;;;;;18.62;51.77;100439.41;21029372;28;20622;-78
2023/09/27 21:19:52;;;;;;;5.15;3.83;;;;;;;18.54;52.54;100427.06;21033231;28;20219;-78
2023/09/27 21:29:55;;;;;;;5.65;2.70;;;;;;;18.07;53.71;100426.59;21051790;28;20217;-79
2023/09/27 21:39:57;;;;;;;3.38;2.65;;;;;;;18.26;53.33;100429.41;21047810;28;20259;-78
2023/09/27 21:50:00;;;;;;;3.90;2.33;;;;;;;18.21;53.02;100409.75;21048016;28;20234;-78
2023/09/27 22:00:02;;;;;;;3.08;2.55;;;;;;;18.50;52.05;100389.13;21049329;28;20248;-79
2023/09/27 22:10:07;;;;;;;4.28;2.28;;;;;;;18.20;52.90;100379.63;21045660;28;20210;-79
2023/09/27 22:20:12;;;;;;;3.97;2.25;;;;;;;18.14;52.41;100359.22;21048641;28;20214;-80
2023/09/27 22:30:15;;;;;;;3.40;2.33;;;;;;;18.30;51.94;100356.22;21046284;28;20203;-78
2023/09/27 22:40:20;;;;;;;2.67;2.47;;;;;;;17.90;53.23;100354.69;21049360;28;20300;-78
2023/09/27 22:50:28;;;;;;;3.55;2.22;;;;;;;17.68;51.98;100341.22;21041783;28;20281;-78
2023/09/27 23:00:31;;;;;;;2.20;2.00;;;;;;;18.16;50.48;100327.50;21039937;28;20225;-78
2023/09/27 23:10:36;;;;;;;4.82;1.95;;;;;;;17.99;50.16;100288.13;21042718;28;20199;-78
2023/09/27 23:20:38;;;;;;;4.13;1.80;;;;;;;18.46;48.62;100291.34;21039987;28;20319;-78
2023/09/27 23:30:49;;;;;;;1.98;1.80;;;;;;;18.11;49.67;100307.88;21034721;28;20222;-78
2023/09/27 23:40:51;;;;;;;1.83;1.50;;;;;;;18.63;47.52;100319.34;21042672;28;20214;-79
2023/09/27 23:50:55;;;;;;;3.63;2.17;;;;;;;18.72;46.86;100309.66;21036576;28;20696;-79
